Time;durP1;ratioP1;P1;durP2;ratioP2;P2;SDS_P1;SDS_P2;PMS_P1;PMS_P2;Temp;Humidity;BMP_temperature;BMP_pressure;BME280_temperature;BME280_humidity;BME280_pressure;Samples;Min_cycle;Max_cycle;Signal;HPM_P1;HPM_P2
2022/07/29 00:01:00;;;;;;;22.80;20.17;;;;;;;-144.27;100.00;69759.91;2057831;28;20960;-75
2022/07/29 00:02:03;;;;;;;22.60;20.47;;;;;;;-144.27;100.00;69759.91;2058174;28;20193;-75
2022/07/29 00:03:06;;;;;;;22.10;19.93;;;;;;;-144.27;100.00;69759.91;2058641;28;20936;-76
2022/07/29 00:04:07;;;;;;;21.73;19.83;;;;;;;-144.27;100.00;69759.91;2058437;28;20441;-75
2022/07/29 00:05:14;;;;;;;21.63;19.70;;;;;;;-144.27;100.00;69759.91;2058577;28;20439;-75
2022/07/29 00:06:15;;;;;;;24.07;20.13;;;;;;;-144.27;100.00;69759.91;2057348;28;20229;-75
2022/07/29 00:07:17;;;;;;;21.67;19.57;;;;;;;-144.27;100.00;69759.91;2057846;28;20438;-75
2022/07/29 00:08:20;;;;;;;22.57;20.23;;;;;;;-144.27;100.00;69759.91;2065809;28;20222;-75
2022/07/29 00:09:22;;;;;;;28.80;19.93;;;;;;;-144.27;100.00;69759.91;2057756;28;20437;-75
2022/07/29 00:10:23;;;;;;;22.87;20.50;;;;;;;-144.27;100.00;69759.91;2057916;28;20429;-75
2022/07/29 00:11:24;;;;;;;21.57;19.63;;;;;;;-144.27;100.00;69759.91;2057815;28;20437;-75
2022/07/29 00:12:25;;;;;;;23.60;20.10;;;;;;;-144.27;100.00;69759.91;2057808;28;20210;-75
2022/07/29 00:13:28;;;;;;;21.10;19.27;;;;;;;-144.27;100.00;69759.91;2065979;28;20429;-75
2022/07/29 00:14:28;;;;;;;21.87;19.97;;;;;;;-144.27;100.00;69759.91;2057911;28;20194;-75
2022/07/29 00:15:30;;;;;;;22.53;20.47;;;;;;;-144.27;100.00;69759.91;2058262;28;20429;-75
2022/07/29 00:16:34;;;;;;;21.93;19.80;;;;;;;-144.27;100.00;69759.91;2058596;28;20189;-75
2022/07/29 00:17:36;;;;;;;22.30;20.10;;;;;;;-144.27;100.00;69759.91;2057621;28;20464;-75
2022/07/29 00:18:39;;;;;;;22.13;20.03;;;;;;;-144.27;100.00;69759.91;2057798;28;20872;-76
2022/07/29 00:19:41;;;;;;;23.20;19.63;;;;;;;-144.27;100.00;69759.91;2058334;28;20436;-75
2022/07/29 00:20:42;;;;;;;21.07;19.17;;;;;;;-144.27;100.00;69759.91;2058341;28;20435;-75
2022/07/29 00:21:44;;;;;;;21.87;19.87;;;;;;;-144.27;100.00;69759.91;2058048;28;20453;-75
2022/07/29 00:22:47;;;;;;;21.70;19.67;;;;;;;-144.27;100.00;69759.91;2057675;28;20963;-75
2022/07/29 00:23:49;;;;;;;25.50;20.43;;;;;;;-144.27;100.00;69759.91;2057682;28;20834;-75
2022/07/29 00:24:49;;;;;;;21.80;19.60;;;;;;;-144.27;100.00;69759.91;2057787;28;20559;-75
2022/07/29 00:25:51;;;;;;;21.47;19.67;;;;;;;-144.27;100.00;69759.91;2057659;28;20446;-76
2022/07/29 00:26:53;;;;;;;21.60;19.73;;;;;;;-144.27;100.00;69759.91;2057757;28;20284;-75
2022/07/29 00:27:55;;;;;;;21.47;19.67;;;;;;;-144.27;100.00;69759.91;2058278;28;20435;-75
2022/07/29 00:28:59;;;;;;;22.23;20.13;;;;;;;-144.27;100.00;69759.91;2058243;28;20552;-75
2022/07/29 00:30:01;;;;;;;21.70;19.70;;;;;;;-144.27;100.00;69759.91;2058282;28;20487;-76
2022/07/29 00:31:02;;;;;;;22.17;20.00;;;;;;;-144.27;100.00;69759.91;2058262;28;20916;-75
2022/07/29 00:32:04;;;;;;;22.60;20.30;;;;;;;-144.27;100.00;69759.91;2057634;28;20811;-75
2022/07/29 00:33:06;;;;;;;21.47;19.50;;;;;;;-144.27;100.00;69759.91;2057271;28;20747;-75
2022/07/29 00:35:43;;;;;;;22.10;19.87;;;;;;;-144.27;100.00;69759.91;2057701;28;20429;-75
2022/07/29 00:35:45;;;;;;;21.83;19.90;;;;;;;-144.27;100.00;69759.91;2057583;28;21006;-75
2022/07/29 00:36:46;;;;;;;22.10;19.97;;;;;;;-144.27;100.00;69759.91;2057511;28;21035;-76
2022/07/29 00:37:48;;;;;;;21.23;19.40;;;;;;;-144.27;100.00;69759.91;2057493;28;21079;-75
2022/07/29 00:38:50;;;;;;;22.10;19.97;;;;;;;-144.27;100.00;69759.91;2057499;28;20460;-75
2022/07/29 00:39:51;;;;;;;22.07;19.80;;;;;;;-144.27;100.00;69759.91;2049678;28;20445;-75
2022/07/29 00:40:53;;;;;;;22.27;19.90;;;;;;;-144.27;100.00;69759.91;2057746;28;20429;-75
2022/07/29 00:41:55;;;;;;;21.80;19.73;;;;;;;-144.27;100.00;69759.91;2058237;28;20181;-75
2022/07/29 00:43:02;;;;;;;21.50;19.60;;;;;;;-144.27;100.00;69759.91;2058178;28;20429;-76
2022/07/29 00:44:03;;;;;;;21.60;19.60;;;;;;;-144.27;100.00;69759.91;2058213;28;20406;-75
2022/07/29 00:45:06;;;;;;;23.17;20.87;;;;;;;-144.27;100.00;69759.91;2057483;28;20503;-75
2022/07/29 00:46:06;;;;;;;21.97;19.63;;;;;;;-144.27;100.00;69759.91;2049957;28;20446;-75
2022/07/29 00:47:08;;;;;;;21.30;19.27;;;;;;;-144.27;100.00;69759.91;2057795;28;20944;-75
2022/07/29 00:48:10;;;;;;;23.33;19.70;;;;;;;-144.27;100.00;69759.91;2058190;28;20221;-75
2022/07/29 00:49:13;;;;;;;23.33;19.90;;;;;;;-144.27;100.00;69759.91;2058177;28;20531;-75
2022/07/29 00:50:14;;;;;;;21.23;19.20;;;;;;;-144.27;100.00;69759.91;2057492;28;20500;-75
2022/07/29 00:51:18;;;;;;;23.20;19.30;;;;;;;-144.27;100.00;69759.91;2057067;28;20453;-75
2022/07/29 00:52:18;;;;;;;23.80;19.73;;;;;;;-144.27;100.00;69759.91;2065315;28;20436;-75
2022/07/29 00:53:20;;;;;;;22.07;19.83;;;;;;;-144.27;100.00;69759.91;2058134;28;20425;-75
2022/07/29 00:54:25;;;;;;;20.90;19.07;;;;;;;-144.27;100.00;69759.91;2057117;28;20209;-75
2022/07/29 00:55:28;;;;;;;21.10;19.23;;;;;;;-144.27;100.00;69759.91;2057465;28;20456;-75
2022/07/29 00:56:30;;;;;;;22.33;20.30;;;;;;;-144.27;100.00;69759.91;2056969;28;21053;-74
2022/07/29 00:57:32;;;;;;;21.60;19.63;;;;;;;-144.27;100.00;69759.91;2065581;28;20965;-75
2022/07/29 00:58:33;;;;;;;21.73;19.67;;;;;;;-144.27;100.00;69759.91;2058289;28;20193;-75
2022/07/29 00:59:35;;;;;;;21.50;19.60;;;;;;;-144.27;100.00;69759.91;2057345;28;20845;-75
2022/07/29 01:00:36;;;;;;;21.60;19.70;;;;;;;-144.27;100.00;69759.91;2057513;28;20999;-75
2022/07/29 01:01:39;;;;;;;22.10;19.63;;;;;;;-144.27;100.00;69759.91;2058073;28;20820;-75
2022/07/29 01:02:40;;;;;;;21.80;19.83;;;;;;;-144.27;100.00;69759.91;2058150;28;20197;-75
2022/07/29 01:03:42;;;;;;;22.97;20.73;;;;;;;-144.27;100.00;69759.91;2057404;28;20816;-75
2022/07/29 01:04:44;;;;;;;22.73;20.63;;;;;;;-144.27;100.00;69759.91;2057601;28;20552;-75
2022/07/29 01:05:46;;;;;;;26.30;20.83;;;;;;;-144.27;100.00;69759.91;2057124;28;20453;-76
2022/07/29 01:06:47;;;;;;;25.43;20.30;;;;;;;-144.27;100.00;69759.91;2057269;28;20511;-76
2022/07/29 01:07:51;;;;;;;23.20;20.80;;;;;;;-144.27;100.00;69759.91;2058009;28;20429;-75
2022/07/29 01:08:53;;;;;;;23.03;20.83;;;;;;;-144.27;100.00;69759.91;2058079;28;20284;-76
2022/07/29 01:09:56;;;;;;;22.67;20.43;;;;;;;-144.27;100.00;69759.91;2058031;28;20524;-76
2022/07/29 01:10:57;;;;;;;26.00;21.30;;;;;;;-144.27;100.00;69759.91;2057994;28;20916;-76
2022/07/29 01:12:00;;;;;;;22.77;20.37;;;;;;;-144.27;100.00;69759.91;2058086;28;20778;-75
2022/07/29 01:13:02;;;;;;;24.07;21.33;;;;;;;-144.27;100.00;69759.91;2057976;28;20441;-76
2022/07/29 01:14:03;;;;;;;24.53;21.30;;;;;;;-144.27;100.00;69759.91;2058009;28;20432;-76
2022/07/29 01:15:08;;;;;;;23.23;20.83;;;;;;;-144.27;100.00;69759.91;2057040;28;20461;-76
2022/07/29 01:16:17;;;;;;;23.97;21.57;;;;;;;-144.27;100.00;69759.91;2057614;28;20900;-75
2022/07/29 01:17:21;;;;;;;23.77;21.23;;;;;;;-144.27;100.00;69759.91;2057174;28;20480;-75
2022/07/29 01:18:27;;;;;;;24.80;20.93;;;;;;;-144.27;100.00;69759.91;2057504;28;20440;-75
2022/07/29 01:19:45;;;;;;;23.97;21.53;;;;;;;-144.27;100.00;69759.91;2058014;28;20451;-75
2022/07/29 01:20:59;;;;;;;25.00;21.97;;;;;;;-144.27;100.00;69759.91;2058183;28;20733;-75
2022/07/29 01:22:12;;;;;;;25.53;21.30;;;;;;;-144.27;100.00;69759.91;2056990;28;20444;-76
2022/07/29 01:23:41;;;;;;;26.30;21.43;;;;;;;-144.27;100.00;69759.91;2057323;28;20463;-75
2022/07/29 01:25:00;;;;;;;23.23;21.13;;;;;;;-144.27;100.00;69759.91;2050836;28;20976;-76
2022/07/29 01:26:16;;;;;;;23.27;20.90;;;;;;;-144.27;100.00;69759.91;2057589;28;20439;-75
2022/07/29 01:27:32;;;;;;;28.23;21.80;;;;;;;-144.27;100.00;69759.91;2057217;28;20449;-76
2022/07/29 01:28:48;;;;;;;24.27;21.67;;;;;;;-144.27;100.00;69759.91;2057728;28;20788;-76
2022/07/29 01:29:53;;;;;;;26.23;21.80;;;;;;;-144.27;100.00;69759.91;2057988;28;20413;-76
2022/07/29 01:30:55;;;;;;;31.83;21.80;;;;;;;-144.27;100.00;69759.91;2057868;28;20425;-76
2022/07/29 01:32:01;;;;;;;23.70;21.33;;;;;;;-144.27;100.00;69759.91;2058027;28;20461;-76
2022/07/29 01:33:09;;;;;;;23.20;20.73;;;;;;;-144.27;100.00;69759.91;2057999;28;20423;-75
2022/07/29 01:34:18;;;;;;;26.87;22.00;;;;;;;-144.27;100.00;69759.91;2058201;28;20443;-75
2022/07/29 01:35:21;;;;;;;25.53;21.53;;;;;;;-144.27;100.00;69759.91;2057239;28;20434;-75
2022/07/29 01:36:44;;;;;;;26.03;20.80;;;;;;;-144.27;100.00;69759.91;2056756;28;20869;-75
2022/07/29 01:37:47;;;;;;;24.23;21.23;;;;;;;-144.27;100.00;69759.91;2057519;28;20417;-75
2022/07/29 01:38:54;;;;;;;25.73;21.80;;;;;;;-144.27;100.00;69759.91;2056592;28;20461;-75
2022/07/29 01:39:57;;;;;;;24.07;20.80;;;;;;;-144.27;100.00;69759.91;2057569;28;20497;-75
2022/07/29 01:41:04;;;;;;;23.67;21.33;;;;;;;-144.27;100.00;69759.91;2057148;28;20452;-75
2022/07/29 01:42:11;;;;;;;23.80;21.50;;;;;;;-144.27;100.00;69759.91;2049919;28;20450;-75
2022/07/29 01:43:17;;;;;;;26.63;21.60;;;;;;;-144.27;100.00;69759.91;2050058;28;20442;-75
2022/07/29 01:44:23;;;;;;;23.57;21.10;;;;;;;-144.27;100.00;69759.91;2057280;28;20461;-75
2022/07/29 01:45:29;;;;;;;26.00;21.27;;;;;;;-144.27;100.00;69759.91;2057206;28;20441;-76
2022/07/29 01:46:33;;;;;;;23.77;21.20;;;;;;;-144.27;100.00;69759.91;2057452;28;20457;-76
2022/07/29 01:47:40;;;;;;;23.77;21.00;;;;;;;-144.27;100.00;69759.91;2057140;28;20484;-75
2022/07/29 01:48:45;;;;;;;22.73;20.40;;;;;;;-144.27;100.00;69759.91;2056679;28;20463;-76
2022/07/29 01:49:50;;;;;;;22.83;20.50;;;;;;;-144.27;100.00;69759.91;2057464;28;20984;-76
2022/07/29 01:50:56;;;;;;;22.50;20.20;;;;;;;-144.27;100.00;69759.91;2057792;28;20499;-75
2022/07/29 01:52:00;;;;;;;22.33;20.43;;;;;;;-144.27;100.00;69759.91;2056803;28;20465;-76
2022/07/29 01:53:04;;;;;;;23.73;21.37;;;;;;;-144.27;100.00;69759.91;2057502;28;20437;-76
2022/07/29 01:54:10;;;;;;;27.03;21.73;;;;;;;-144.27;100.00;69759.91;2057807;28;20464;-75
2022/07/29 01:55:14;;;;;;;24.83;22.30;;;;;;;-144.27;100.00;69759.91;2057799;28;20477;-75
2022/07/29 01:56:17;;;;;;;23.60;21.30;;;;;;;-144.27;100.00;69759.91;2057918;28;20437;-75
2022/07/29 01:57:21;;;;;;;24.53;22.13;;;;;;;-144.27;100.00;69759.91;2057750;28;20856;-75
2022/07/29 01:58:23;;;;;;;24.17;21.60;;;;;;;-144.27;100.00;69759.91;2057149;28;20437;-75
2022/07/29 01:59:27;;;;;;;27.20;21.97;;;;;;;-144.27;100.00;69759.91;2057197;28;20526;-75
2022/07/29 02:00:29;;;;;;;23.60;21.43;;;;;;;-144.27;100.00;69759.91;2057761;28;20494;-76
2022/07/29 02:01:32;;;;;;;24.70;21.80;;;;;;;-144.27;100.00;69759.91;2057038;28;20437;-75
2022/07/29 02:02:35;;;;;;;24.17;21.60;;;;;;;-144.27;100.00;69759.91;2057345;28;20979;-75
2022/07/29 02:03:37;;;;;;;23.10;20.97;;;;;;;-144.27;100.00;69759.91;2057739;28;21030;-75
2022/07/29 02:04:40;;;;;;;23.27;20.87;;;;;;;-144.27;100.00;69759.91;2057752;28;20492;-75
2022/07/29 02:05:43;;;;;;;22.73;20.27;;;;;;;-144.27;100.00;69759.91;2057742;28;20476;-76
2022/07/29 02:06:46;;;;;;;23.33;20.93;;;;;;;-144.27;100.00;69759.91;2056778;28;20453;-76
2022/07/29 02:07:49;;;;;;;23.10;20.80;;;;;;;-144.27;100.00;69759.91;2057259;28;20795;-76
2022/07/29 02:08:51;;;;;;;22.00;20.03;;;;;;;-144.27;100.00;69759.91;2057016;28;20499;-76
2022/07/29 02:09:53;;;;;;;22.37;20.27;;;;;;;-144.27;100.00;69759.91;2057196;28;20421;-76
2022/07/29 02:10:55;;;;;;;22.93;20.33;;;;;;;-144.27;100.00;69759.91;2056793;28;20441;-76
2022/07/29 02:12:01;;;;;;;21.93;20.03;;;;;;;-144.27;100.00;69759.91;2057262;28;20868;-76
2022/07/29 02:13:03;;;;;;;22.93;20.43;;;;;;;-144.27;100.00;69759.91;2057190;28;20869;-76
2022/07/29 02:14:05;;;;;;;22.30;20.10;;;;;;;-144.27;100.00;69759.91;2057430;28;20436;-75
2022/07/29 02:15:08;;;;;;;21.90;19.90;;;;;;;-144.27;100.00;69759.91;2057720;28;21027;-76
2022/07/29 02:16:10;;;;;;;22.37;20.30;;;;;;;-144.27;100.00;69759.91;2057788;28;20440;-76
2022/07/29 02:17:12;;;;;;;30.60;20.83;;;;;;;-144.27;100.00;69759.91;2059966;28;20879;-76
2022/07/29 02:18:17;;;;;;;22.57;20.07;;;;;;;-144.27;100.00;69759.91;2065875;28;20407;-76
2022/07/29 02:19:20;;;;;;;25.67;20.03;;;;;;;-144.27;100.00;69759.91;2065749;28;20463;-76
2022/07/29 02:20:23;;;;;;;22.03;19.93;;;;;;;-144.27;100.00;69759.91;2056565;28;20453;-75
2022/07/29 02:21:25;;;;;;;22.07;19.93;;;;;;;-144.27;100.00;69759.91;2057024;28;20568;-76
2022/07/29 02:22:28;;;;;;;22.13;20.20;;;;;;;-144.27;100.00;69759.91;2056965;28;20453;-76
2022/07/29 02:23:31;;;;;;;21.13;19.23;;;;;;;-144.27;100.00;69759.91;2057224;28;20532;-76
2022/07/29 02:24:35;;;;;;;22.57;20.37;;;;;;;-144.27;100.00;69759.91;2065990;28;20888;-76
2022/07/29 02:25:38;;;;;;;22.37;20.10;;;;;;;-144.27;100.00;69759.91;2065895;28;20981;-75
2022/07/29 02:26:41;;;;;;;22.03;20.13;;;;;;;-144.27;100.00;69759.91;2066282;28;20435;-76
2022/07/29 02:27:42;;;;;;;22.23;20.23;;;;;;;-144.27;100.00;69759.91;2065894;28;20930;-76
2022/07/29 02:28:44;;;;;;;22.77;20.60;;;;;;;-144.27;100.00;69759.91;2065718;28;20443;-76
2022/07/29 02:29:46;;;;;;;22.23;19.90;;;;;;;-144.27;100.00;69759.91;2064712;28;20515;-76
2022/07/29 02:30:51;;;;;;;22.27;20.07;;;;;;;-144.27;100.00;69759.91;2065367;28;20971;-76
2022/07/29 02:31:52;;;;;;;22.43;20.20;;;;;;;-144.27;100.00;69759.91;2056986;28;20489;-76
2022/07/29 02:32:56;;;;;;;22.10;20.07;;;;;;;-144.27;100.00;69759.91;2057291;28;20904;-76
2022/07/29 02:33:57;;;;;;;22.30;20.00;;;;;;;-144.27;100.00;69759.91;2064700;28;20546;-76
2022/07/29 02:34:59;;;;;;;22.50;20.20;;;;;;;-144.27;100.00;69759.91;2048984;29;20641;-76
2022/07/29 02:36:01;;;;;;;21.23;19.53;;;;;;;-144.27;100.00;69759.91;2056450;28;20506;-76
2022/07/29 02:37:04;;;;;;;22.60;20.10;;;;;;;-144.27;100.00;69759.91;2065375;28;20409;-76
2022/07/29 02:39:26;;;;;;;21.67;19.57;;;;;;;-144.27;100.00;69759.91;2064074;28;20192;-76
2022/07/29 02:40:27;;;;;;;20.83;19.03;;;;;;;-144.27;100.00;69759.91;2058963;28;20524;-76
2022/07/29 02:41:34;;;;;;;21.40;19.50;;;;;;;-144.27;100.00;69759.91;2066486;28;20448;-76
2022/07/29 02:42:36;;;;;;;21.60;19.55;;;;;;;-144.27;100.00;69759.91;2066895;28;20220;-75
2022/07/29 02:43:38;;;;;;;21.90;19.60;;;;;;;-144.27;100.00;69759.91;2067153;28;20201;-75
2022/07/29 02:44:39;;;;;;;21.80;19.50;;;;;;;-144.27;100.00;69759.91;2067254;28;20440;-75
2022/07/29 02:45:41;;;;;;;22.73;19.60;;;;;;;-144.27;100.00;69759.91;2067168;28;20273;-76
2022/07/29 02:46:46;;;;;;;21.77;19.40;;;;;;;-144.27;100.00;69759.91;2066441;28;20204;-75
2022/07/29 02:47:52;;;;;;;21.90;19.90;;;;;;;-144.27;100.00;69759.91;2058440;28;20850;-75
2022/07/29 02:48:58;;;;;;;21.47;19.57;;;;;;;-144.27;100.00;69759.91;2059069;28;20398;-75
2022/07/29 02:50:03;;;;;;;21.07;19.17;;;;;;;-144.27;100.00;69759.91;2067287;28;20444;-76
2022/07/29 02:51:07;;;;;;;21.47;19.47;;;;;;;-144.27;100.00;69759.91;2065852;28;20479;-75
2022/07/29 02:52:14;;;;;;;20.83;19.03;;;;;;;-144.27;100.00;69759.91;2066123;28;20444;-75
2022/07/29 02:53:18;;;;;;;20.10;18.50;;;;;;;-144.27;100.00;69759.91;2059484;28;20421;-75
2022/07/29 02:54:24;;;;;;;20.80;19.00;;;;;;;-144.27;100.00;69759.91;2067053;28;20837;-76
2022/07/29 02:55:29;;;;;;;20.50;18.77;;;;;;;-144.27;100.00;69759.91;2067302;28;20411;-75
2022/07/29 02:56:34;;;;;;;20.97;19.07;;;;;;;-144.27;100.00;69759.91;2066351;28;20499;-75
2022/07/29 02:57:40;;;;;;;23.47;19.50;;;;;;;-144.27;100.00;69759.91;2066500;28;20438;-75
2022/07/29 02:58:46;;;;;;;20.88;19.10;;;;;;;-144.27;100.00;69759.91;2067301;28;20409;-75
2022/07/29 02:59:48;;;;;;;20.23;18.43;;;;;;;-144.27;100.00;69759.91;2067144;28;20256;-75
2022/07/29 03:00:52;;;;;;;20.50;18.60;;;;;;;-144.27;100.00;69759.91;2067229;28;20432;-75
2022/07/29 03:01:55;;;;;;;20.10;18.40;;;;;;;-144.27;100.00;69759.91;2067190;28;20432;-75
2022/07/29 03:02:59;;;;;;;20.90;19.00;;;;;;;-144.27;100.00;69759.91;2067085;28;20231;-75
2022/07/29 03:04:02;;;;;;;20.05;18.30;;;;;;;-144.27;100.00;69759.91;2067088;28;20432;-76
2022/07/29 03:05:04;;;;;;;19.33;17.77;;;;;;;-144.27;100.00;69759.91;2067074;28;20200;-76
2022/07/29 03:06:06;;;;;;;21.17;19.17;;;;;;;-144.27;100.00;69759.91;2066565;28;20246;-75
2022/07/29 03:07:10;;;;;;;20.37;18.60;;;;;;;-144.27;100.00;69759.91;2066324;28;20201;-75
2022/07/29 03:08:11;;;;;;;20.35;18.25;;;;;;;-144.27;100.00;69759.91;2066578;28;20443;-75
2022/07/29 03:09:14;;;;;;;19.60;18.10;;;;;;;-144.27;100.00;69759.91;2066202;28;20193;-76
2022/07/29 03:10:14;;;;;;;19.88;18.20;;;;;;;-144.27;100.00;69759.91;2066133;28;20512;-75
2022/07/29 03:11:17;;;;;;;20.17;18.57;;;;;;;-144.27;100.00;69759.91;2058452;28;20261;-75
2022/07/29 03:12:18;;;;;;;20.50;18.58;;;;;;;-144.27;100.00;69759.91;2067101;28;20531;-75
2022/07/29 03:13:20;;;;;;;20.25;18.58;;;;;;;-144.27;100.00;69759.91;2066911;28;20316;-75
2022/07/29 03:14:22;;;;;;;20.53;18.63;;;;;;;-144.27;100.00;69759.91;2066921;28;20193;-75
2022/07/29 03:15:25;;;;;;;19.75;18.13;;;;;;;-144.27;100.00;69759.91;2066112;28;20818;-75
2022/07/29 03:16:26;;;;;;;20.00;18.40;;;;;;;-144.27;100.00;69759.91;2058167;28;20198;-76
2022/07/29 03:17:31;;;;;;;20.10;18.40;;;;;;;-144.27;100.00;69759.91;2058196;28;20320;-76
2022/07/29 03:18:32;;;;;;;20.73;19.00;;;;;;;-144.27;100.00;69759.91;2066764;28;20853;-75
2022/07/29 03:19:34;;;;;;;20.75;18.85;;;;;;;-144.27;100.00;69759.91;2066188;28;20197;-76
2022/07/29 03:20:36;;;;;;;19.92;18.27;;;;;;;-144.27;100.00;69759.91;2066304;28;20193;-76
2022/07/29 03:21:38;;;;;;;20.25;18.45;;;;;;;-144.27;100.00;69759.91;2066622;28;20241;-75
2022/07/29 03:22:43;;;;;;;19.73;18.15;;;;;;;-144.27;100.00;69759.91;2066199;28;20251;-75
2022/07/29 03:23:46;;;;;;;19.92;18.42;;;;;;;-144.27;100.00;69759.91;2065677;28;20197;-75
2022/07/29 03:24:47;;;;;;;20.33;18.45;;;;;;;-144.27;100.00;69759.91;2058708;28;20190;-75
2022/07/29 03:25:49;;;;;;;20.57;18.87;;;;;;;-144.27;100.00;69759.91;2066517;28;20655;-75
2022/07/29 03:26:50;;;;;;;20.67;18.77;;;;;;;-144.27;100.00;69759.91;2066032;28;20204;-75
2022/07/29 03:27:51;;;;;;;20.53;18.53;;;;;;;-144.27;100.00;69759.91;2050218;29;20202;-75
2022/07/29 03:28:54;;;;;;;21.02;18.90;;;;;;;-144.27;100.00;69759.91;2050146;28;20186;-75
2022/07/29 03:29:58;;;;;;;20.50;18.67;;;;;;;-144.27;100.00;69759.91;2058320;28;20209;-75
2022/07/29 03:30:59;;;;;;;20.83;18.85;;;;;;;-144.27;100.00;69759.91;2066142;28;20962;-76
2022/07/29 03:32:03;;;;;;;20.90;18.90;;;;;;;-144.27;100.00;69759.91;2066072;28;20626;-77
2022/07/29 03:33:06;;;;;;;20.98;19.10;;;;;;;-144.27;100.00;69759.91;2050463;28;20292;-74
2022/07/29 03:34:07;;;;;;;22.00;19.90;;;;;;;-144.27;100.00;69759.91;2058392;28;20190;-75
2022/07/29 03:35:10;;;;;;;20.27;18.50;;;;;;;-144.27;100.00;69759.91;2066976;28;20192;-74
2022/07/29 03:36:14;;;;;;;20.55;18.73;;;;;;;-144.27;100.00;69759.91;2066225;28;20213;-75
2022/07/29 03:37:15;;;;;;;20.40;18.48;;;;;;;-144.27;100.00;69759.91;2067028;28;20173;-75
2022/07/29 03:38:17;;;;;;;20.47;18.53;;;;;;;-144.27;100.00;69759.91;2066937;28;20711;-75
2022/07/29 03:39:21;;;;;;;20.80;18.70;;;;;;;-144.27;100.00;69759.91;2066839;28;20279;-75
2022/07/29 03:40:24;;;;;;;19.80;18.20;;;;;;;-144.27;100.00;69759.91;2058009;28;20488;-74
2022/07/29 03:41:24;;;;;;;19.83;18.05;;;;;;;-144.27;100.00;69759.91;2050147;28;20728;-74
2022/07/29 03:42:28;;;;;;;19.57;17.97;;;;;;;-144.27;100.00;69759.91;2058321;28;20511;-75
2022/07/29 03:43:32;;;;;;;19.73;18.13;;;;;;;-144.27;100.00;69759.91;2066715;28;20609;-74
2022/07/29 03:44:35;;;;;;;21.23;18.73;;;;;;;-144.27;100.00;69759.91;2058019;28;20194;-75
2022/07/29 03:45:36;;;;;;;20.33;18.63;;;;;;;-144.27;100.00;69759.91;2058239;28;20276;-74
2022/07/29 03:46:39;;;;;;;22.13;19.25;;;;;;;-144.27;100.00;69759.91;2057960;28;20664;-75
2022/07/29 03:47:44;;;;;;;20.63;18.58;;;;;;;-144.27;100.00;69759.91;2050121;28;20301;-75
2022/07/29 03:48:49;;;;;;;20.45;18.33;;;;;;;-144.27;100.00;69759.91;2050451;28;20190;-75
2022/07/29 03:49:52;;;;;;;20.85;17.83;;;;;;;-144.27;100.00;69759.91;2057467;28;20293;-74
2022/07/29 03:50:56;;;;;;;20.17;18.13;;;;;;;-144.27;100.00;69759.91;2057340;28;20200;-74
2022/07/29 03:51:57;;;;;;;20.17;18.17;;;;;;;-144.27;100.00;69759.91;2058440;28;20178;-75
2022/07/29 03:53:00;;;;;;;20.10;18.23;;;;;;;-144.27;100.00;69759.91;2065956;28;20452;-74
2022/07/29 03:54:01;;;;;;;20.65;18.55;;;;;;;-144.27;100.00;69759.91;2066054;28;20235;-75
2022/07/29 03:55:03;;;;;;;19.80;18.13;;;;;;;-144.27;100.00;69759.91;2058136;28;20202;-74
2022/07/29 03:56:06;;;;;;;20.13;18.33;;;;;;;-144.27;100.00;69759.91;2066567;28;20197;-74
2022/07/29 03:57:08;;;;;;;20.87;18.87;;;;;;;-144.27;100.00;69759.91;2065853;28;20201;-74
2022/07/29 03:58:10;;;;;;;20.90;18.98;;;;;;;-144.27;100.00;69759.91;2066042;28;20448;-75
2022/07/29 03:59:15;;;;;;;20.65;18.85;;;;;;;-144.27;100.00;69759.91;2050038;28;20194;-75
2022/07/29 04:00:16;;;;;;;25.88;19.00;;;;;;;-144.27;100.00;69759.91;2050231;28;20206;-74
2022/07/29 04:01:18;;;;;;;20.23;18.20;;;;;;;-144.27;100.00;69759.91;2049805;28;20218;-74
2022/07/29 04:02:20;;;;;;;21.17;18.75;;;;;;;-144.27;100.00;69759.91;2049941;28;20968;-74
2022/07/29 04:03:23;;;;;;;22.00;19.83;;;;;;;-144.27;100.00;69759.91;2057841;28;20190;-75
2022/07/29 04:04:25;;;;;;;22.83;19.40;;;;;;;-144.27;100.00;69759.91;2057971;28;20236;-75
2022/07/29 04:05:27;;;;;;;21.35;19.15;;;;;;;-144.27;100.00;69759.91;2065786;28;20232;-74
2022/07/29 04:06:28;;;;;;;21.77;19.67;;;;;;;-144.27;100.00;69759.91;2057685;28;20230;-75
2022/07/29 04:07:29;;;;;;;22.03;19.83;;;;;;;-144.27;100.00;69759.91;2066605;28;20255;-74
2022/07/29 04:08:30;;;;;;;20.58;18.77;;;;;;;-144.27;100.00;69759.91;2065864;28;20205;-74
2022/07/29 04:09:32;;;;;;;21.70;19.43;;;;;;;-144.27;100.00;69759.91;2065761;28;20295;-75
2022/07/29 04:10:33;;;;;;;21.85;19.45;;;;;;;-144.27;100.00;69759.91;2049764;28;20217;-75
2022/07/29 04:11:37;;;;;;;21.50;19.50;;;;;;;-144.27;100.00;69759.91;2058108;28;20209;-75
2022/07/29 04:12:38;;;;;;;21.87;19.53;;;;;;;-144.27;100.00;69759.91;2058129;28;20293;-74
2022/07/29 04:13:40;;;;;;;21.77;19.77;;;;;;;-144.27;100.00;69759.91;2057861;28;20448;-75
2022/07/29 04:14:40;;;;;;;21.25;19.10;;;;;;;-144.27;100.00;69759.91;2066456;28;20660;-75
2022/07/29 04:15:42;;;;;;;22.33;20.13;;;;;;;-144.27;100.00;69759.91;2057713;28;20565;-75
2022/07/29 04:16:45;;;;;;;21.60;19.57;;;;;;;-144.27;100.00;69759.91;2057801;28;20615;-75
2022/07/29 04:17:47;;;;;;;21.50;19.40;;;;;;;-144.27;100.00;69759.91;2066191;28;20456;-75
2022/07/29 04:18:49;;;;;;;21.15;19.23;;;;;;;-144.27;100.00;69759.91;2066448;28;20639;-75
2022/07/29 04:19:51;;;;;;;20.63;18.67;;;;;;;-144.27;100.00;69759.91;2065743;28;20197;-75
2022/07/29 04:20:53;;;;;;;21.27;19.13;;;;;;;-144.27;100.00;69759.91;2065345;28;20236;-75
2022/07/29 04:21:54;;;;;;;20.50;18.50;;;;;;;-144.27;100.00;69759.91;2057733;28;20584;-75
2022/07/29 04:22:57;;;;;;;20.00;18.10;;;;;;;-144.27;100.00;69759.91;2049718;29;20285;-75
2022/07/29 04:23:59;;;;;;;20.30;18.40;;;;;;;-144.27;100.00;69759.91;2057884;28;20210;-75
2022/07/29 04:25:02;;;;;;;20.27;18.20;;;;;;;-144.27;100.00;69759.91;2065966;28;20439;-75
2022/07/29 04:26:04;;;;;;;21.30;18.95;;;;;;;-144.27;100.00;69759.91;2065631;28;20452;-75
2022/07/29 04:27:06;;;;;;;23.00;19.60;;;;;;;-144.27;100.00;69759.91;2057699;28;20194;-75
2022/07/29 04:28:07;;;;;;;22.20;19.73;;;;;;;-144.27;100.00;69759.91;2049750;28;20765;-75
2022/07/29 04:29:08;;;;;;;20.90;19.00;;;;;;;-144.27;100.00;69759.91;2057671;28;20468;-74
2022/07/29 04:30:10;;;;;;;20.80;18.90;;;;;;;-144.27;100.00;69759.91;2065669;28;20501;-75
2022/07/29 04:31:13;;;;;;;21.03;18.97;;;;;;;-144.27;100.00;69759.91;2066322;28;20459;-75
2022/07/29 04:32:14;;;;;;;20.97;18.80;;;;;;;-144.27;100.00;69759.91;2066294;28;20927;-75
2022/07/29 04:33:17;;;;;;;21.35;19.25;;;;;;;-144.27;100.00;69759.91;2066227;28;20429;-75
2022/07/29 04:34:18;;;;;;;23.45;19.00;;;;;;;-144.27;100.00;69759.91;2066316;28;20255;-75
2022/07/29 04:35:21;;;;;;;27.47;19.47;;;;;;;-144.27;100.00;69759.91;2066312;28;20189;-75
2022/07/29 04:36:21;;;;;;;21.17;18.93;;;;;;;-144.27;100.00;69759.91;2065926;28;20311;-75
2022/07/29 04:37:23;;;;;;;20.93;18.70;;;;;;;-144.27;100.00;69759.91;2066498;28;20443;-74
2022/07/29 04:38:25;;;;;;;20.20;18.40;;;;;;;-144.27;100.00;69759.91;2066256;28;20279;-75
2022/07/29 04:39:28;;;;;;;20.50;18.53;;;;;;;-144.27;100.00;69759.91;2065577;28;20445;-75
2022/07/29 04:40:28;;;;;;;20.07;18.10;;;;;;;-144.27;100.00;69759.91;2065700;28;20792;-75
2022/07/29 04:41:30;;;;;;;22.83;19.27;;;;;;;-144.27;100.00;69759.91;2066408;28;20424;-75
2022/07/29 04:42:32;;;;;;;22.20;19.43;;;;;;;-144.27;100.00;69759.91;2065651;28;20300;-76
2022/07/29 04:43:33;;;;;;;20.63;18.58;;;;;;;-144.27;100.00;69759.91;2065662;28;20436;-74